PHJR

Kalaeloa (John Rodgers Field) Airport

Kapolei, Hawaii, USA
PHJR 221123Z 2212/2312 05005KT P6SM FEW030 SCT050 SCT200 FM222000 12009G16KT P6SM FEW030 SCT050 SCT200 FM230400 06005KT P6SM FEW030 SCT050
Issued Valid From Valid To
Sep-22 @ 11:23 UTC
(4 hours ago)
Sep-22 @ 12:00 UTC
(3 hours ago)
Sep-23 @ 12:00 UTC
(in 21 hours)
to
to
to
PHJR 221123Z 2212/2312 05005KT P6SM FEW030 SCT050 SCT200 FM222000 12009G16KT P6SM FEW030 SCT050 SCT200 FM230400 06005KT P6SM FEW030 SCT050
Issued Sep-22 @ 11:23 UTC
(4 hours ago)
Valid From Sep-22 @ 12:00 UTC
(3 hours ago)
Valid To Sep-23 @ 12:00 UTC
(in 21 hours)
-
-
-